sensor_id;sensor_type;location;lat;lon;timestamp;P1;durP1;ratioP1;P2;durP2;ratioP2
11287;SDS011;5700;50.996;7.044;2023-02-26T00:00:12;6.95;;;2.63;;
11287;SDS011;5700;50.996;7.044;2023-02-26T00:03:15;5.53;;;2.50;;
11287;SDS011;5700;50.996;7.044;2023-02-26T00:06:18;5.35;;;2.42;;
11287;SDS011;5700;50.996;7.044;2023-02-26T00:09:20;6.50;;;2.92;;
11287;SDS011;5700;50.996;7.044;2023-02-26T00:12:23;10.68;;;2.55;;
11287;SDS011;5700;50.996;7.044;2023-02-26T00:15:25;4.47;;;2.20;;
11287;SDS011;5700;50.996;7.044;2023-02-26T00:18:27;7.88;;;2.85;;
11287;SDS011;5700;50.996;7.044;2023-02-26T00:21:30;6.22;;;2.47;;
11287;SDS011;5700;50.996;7.044;2023-02-26T00:24:32;5.78;;;2.35;;
11287;SDS011;5700;50.996;7.044;2023-02-26T00:27:35;5.63;;;2.42;;
11287;SDS011;5700;50.996;7.044;2023-02-26T00:30:37;5.68;;;2.17;;
11287;SDS011;5700;50.996;7.044;2023-02-26T00:33:39;6.22;;;2.17;;
11287;SDS011;5700;50.996;7.044;2023-02-26T00:36:43;6.45;;;2.70;;
11287;SDS011;5700;50.996;7.044;2023-02-26T00:39:47;5.65;;;2.25;;
11287;SDS011;5700;50.996;7.044;2023-02-26T00:42:55;6.80;;;2.38;;
11287;SDS011;5700;50.996;7.044;2023-02-26T00:46:02;5.70;;;2.20;;
11287;SDS011;5700;50.996;7.044;2023-02-26T00:49:15;3.90;;;1.88;;
11287;SDS011;5700;50.996;7.044;2023-02-26T00:52:24;4.22;;;1.85;;
11287;SDS011;5700;50.996;7.044;2023-02-26T00:55:28;6.30;;;1.75;;
11287;SDS011;5700;50.996;7.044;2023-02-26T00:58:32;4.05;;;2.00;;
11287;SDS011;5700;50.996;7.044;2023-02-26T01:01:33;5.57;;;1.88;;
11287;SDS011;5700;50.996;7.044;2023-02-26T01:04:35;3.40;;;1.90;;
11287;SDS011;5700;50.996;7.044;2023-02-26T01:07:37;3.88;;;2.22;;
11287;SDS011;5700;50.996;7.044;2023-02-26T01:10:41;3.45;;;1.98;;
11287;SDS011;5700;50.996;7.044;2023-02-26T01:13:44;3.50;;;1.67;;
11287;SDS011;5700;50.996;7.044;2023-02-26T01:16:47;3.10;;;1.83;;
11287;SDS011;5700;50.996;7.044;2023-02-26T01:19:52;4.10;;;1.98;;
11287;SDS011;5700;50.996;7.044;2023-02-26T01:22:56;3.03;;;1.92;;
11287;SDS011;5700;50.996;7.044;2023-02-26T01:26:01;6.22;;;2.50;;
11287;SDS011;5700;50.996;7.044;2023-02-26T01:29:06;5.07;;;1.98;;
11287;SDS011;5700;50.996;7.044;2023-02-26T01:32:10;5.70;;;2.08;;
11287;SDS011;5700;50.996;7.044;2023-02-26T01:35:20;4.88;;;2.33;;
11287;SDS011;5700;50.996;7.044;2023-02-26T01:38:28;4.50;;;2.05;;
11287;SDS011;5700;50.996;7.044;2023-02-26T01:41:35;5.35;;;2.33;;
11287;SDS011;5700;50.996;7.044;2023-02-26T01:44:40;7.22;;;2.60;;
11287;SDS011;5700;50.996;7.044;2023-02-26T01:47:45;5.68;;;2.35;;
11287;SDS011;5700;50.996;7.044;2023-02-26T01:50:49;6.65;;;2.72;;
11287;SDS011;5700;50.996;7.044;2023-02-26T01:53:51;6.45;;;2.75;;
11287;SDS011;5700;50.996;7.044;2023-02-26T01:56:55;4.60;;;2.15;;
11287;SDS011;5700;50.996;7.044;2023-02-26T02:00:00;5.97;;;3.08;;
11287;SDS011;5700;50.996;7.044;2023-02-26T02:03:01;6.90;;;2.83;;
11287;SDS011;5700;50.996;7.044;2023-02-26T02:06:04;4.97;;;2.25;;
11287;SDS011;5700;50.996;7.044;2023-02-26T02:09:08;4.38;;;2.00;;
11287;SDS011;5700;50.996;7.044;2023-02-26T02:12:13;5.22;;;2.63;;
11287;SDS011;5700;50.996;7.044;2023-02-26T02:15:22;5.95;;;2.63;;
11287;SDS011;5700;50.996;7.044;2023-02-26T02:18:29;6.55;;;2.92;;
11287;SDS011;5700;50.996;7.044;2023-02-26T02:21:43;10.63;;;4.18;;
11287;SDS011;5700;50.996;7.044;2023-02-26T02:24:52;11.25;;;3.50;;
11287;SDS011;5700;50.996;7.044;2023-02-26T02:28:02;9.05;;;3.50;;
11287;SDS011;5700;50.996;7.044;2023-02-26T02:31:08;7.05;;;3.42;;
11287;SDS011;5700;50.996;7.044;2023-02-26T02:34:12;9.80;;;2.63;;
11287;SDS011;5700;50.996;7.044;2023-02-26T02:37:17;7.63;;;2.17;;
11287;SDS011;5700;50.996;7.044;2023-02-26T02:40:21;8.38;;;2.90;;
11287;SDS011;5700;50.996;7.044;2023-02-26T02:43:24;8.13;;;2.92;;
11287;SDS011;5700;50.996;7.044;2023-02-26T02:46:29;6.07;;;2.45;;
11287;SDS011;5700;50.996;7.044;2023-02-26T02:49:34;5.43;;;2.03;;
11287;SDS011;5700;50.996;7.044;2023-02-26T02:52:40;7.15;;;1.92;;
11287;SDS011;5700;50.996;7.044;2023-02-26T02:55:46;7.32;;;2.50;;
11287;SDS011;5700;50.996;7.044;2023-02-26T02:58:51;6.28;;;2.30;;
11287;SDS011;5700;50.996;7.044;2023-02-26T03:01:58;7.10;;;2.05;;
11287;SDS011;5700;50.996;7.044;2023-02-26T03:05:07;4.85;;;1.65;;
11287;SDS011;5700;50.996;7.044;2023-02-26T03:08:09;6.57;;;1.85;;
11287;SDS011;5700;50.996;7.044;2023-02-26T03:11:12;5.03;;;1.65;;
11287;SDS011;5700;50.996;7.044;2023-02-26T03:14:14;4.30;;;1.85;;
11287;SDS011;5700;50.996;7.044;2023-02-26T03:17:20;6.03;;;1.67;;
11287;SDS011;5700;50.996;7.044;2023-02-26T03:20:28;6.47;;;1.30;;
11287;SDS011;5700;50.996;7.044;2023-02-26T03:23:34;7.00;;;1.90;;
11287;SDS011;5700;50.996;7.044;2023-02-26T03:26:41;5.10;;;1.65;;
11287;SDS011;5700;50.996;7.044;2023-02-26T03:29:46;6.95;;;2.13;;
11287;SDS011;5700;50.996;7.044;2023-02-26T03:32:55;4.15;;;1.80;;
11287;SDS011;5700;50.996;7.044;2023-02-26T03:36:00;6.43;;;1.50;;
11287;SDS011;5700;50.996;7.044;2023-02-26T03:39:06;8.27;;;1.67;;
11287;SDS011;5700;50.996;7.044;2023-02-26T03:42:13;5.40;;;1.60;;
11287;SDS011;5700;50.996;7.044;2023-02-26T03:45:19;2.25;;;1.30;;
11287;SDS011;5700;50.996;7.044;2023-02-26T03:48:25;6.95;;;2.20;;
11287;SDS011;5700;50.996;7.044;2023-02-26T03:51:27;1.92;;;1.20;;
11287;SDS011;5700;50.996;7.044;2023-02-26T03:54:32;1.63;;;1.00;;
11287;SDS011;5700;50.996;7.044;2023-02-26T03:57:34;4.95;;;1.60;;
11287;SDS011;5700;50.996;7.044;2023-02-26T04:00:36;6.00;;;1.63;;
11287;SDS011;5700;50.996;7.044;2023-02-26T04:03:42;3.08;;;1.10;;
11287;SDS011;5700;50.996;7.044;2023-02-26T04:06:45;5.80;;;1.55;;
11287;SDS011;5700;50.996;7.044;2023-02-26T04:09:48;4.10;;;1.40;;
11287;SDS011;5700;50.996;7.044;2023-02-26T04:12:51;1.55;;;1.00;;
11287;SDS011;5700;50.996;7.044;2023-02-26T04:15:52;4.22;;;1.65;;
11287;SDS011;5700;50.996;7.044;2023-02-26T04:18:55;4.68;;;1.45;;
11287;SDS011;5700;50.996;7.044;2023-02-26T04:21:57;2.03;;;1.20;;
11287;SDS011;5700;50.996;7.044;2023-02-26T04:24:58;7.22;;;1.55;;
11287;SDS011;5700;50.996;7.044;2023-02-26T04:28:00;3.25;;;1.20;;
11287;SDS011;5700;50.996;7.044;2023-02-26T04:31:01;2.42;;;1.15;;
11287;SDS011;5700;50.996;7.044;2023-02-26T04:34:04;2.75;;;1.00;;
11287;SDS011;5700;50.996;7.044;2023-02-26T04:37:05;1.83;;;1.08;;
11287;SDS011;5700;50.996;7.044;2023-02-26T04:40:07;2.15;;;0.98;;
11287;SDS011;5700;50.996;7.044;2023-02-26T04:43:09;6.38;;;1.13;;
11287;SDS011;5700;50.996;7.044;2023-02-26T04:46:11;6.68;;;1.20;;
11287;SDS011;5700;50.996;7.044;2023-02-26T04:49:14;5.53;;;1.10;;
11287;SDS011;5700;50.996;7.044;2023-02-26T04:52:15;4.68;;;1.42;;
11287;SDS011;5700;50.996;7.044;2023-02-26T04:55:17;2.70;;;1.02;;
11287;SDS011;5700;50.996;7.044;2023-02-26T04:58:18;2.05;;;1.42;;
11287;SDS011;5700;50.996;7.044;2023-02-26T05:01:20;1.83;;;1.00;;
11287;SDS011;5700;50.996;7.044;2023-02-26T05:04:22;1.58;;;1.10;;
11287;SDS011;5700;50.996;7.044;2023-02-26T05:07:24;3.25;;;1.02;;
11287;SDS011;5700;50.996;7.044;2023-02-26T05:10:25;4.00;;;1.67;;
11287;SDS011;5700;50.996;7.044;2023-02-26T05:13:27;2.75;;;1.25;;
11287;SDS011;5700;50.996;7.044;2023-02-26T05:16:28;7.28;;;1.65;;
11287;SDS011;5700;50.996;7.044;2023-02-26T05:19:31;2.83;;;0.98;;
11287;SDS011;5700;50.996;7.044;2023-02-26T05:22:33;2.03;;;1.20;;
11287;SDS011;5700;50.996;7.044;2023-02-26T05:25:34;5.30;;;2.05;;
11287;SDS011;5700;50.996;7.044;2023-02-26T05:28:36;4.88;;;1.85;;
11287;SDS011;5700;50.996;7.044;2023-02-26T05:31:37;5.22;;;2.10;;
11287;SDS011;5700;50.996;7.044;2023-02-26T05:34:40;7.57;;;2.65;;
11287;SDS011;5700;50.996;7.044;2023-02-26T05:37:41;7.53;;;2.25;;
11287;SDS011;5700;50.996;7.044;2023-02-26T05:40:42;6.55;;;2.05;;
11287;SDS011;5700;50.996;7.044;2023-02-26T05:43:44;4.18;;;2.08;;
11287;SDS011;5700;50.996;7.044;2023-02-26T05:46:45;3.30;;;1.83;;
11287;SDS011;5700;50.996;7.044;2023-02-26T05:49:48;7.40;;;2.10;;
11287;SDS011;5700;50.996;7.044;2023-02-26T05:52:49;5.38;;;1.70;;
11287;SDS011;5700;50.996;7.044;2023-02-26T05:55:51;8.52;;;1.60;;
11287;SDS011;5700;50.996;7.044;2023-02-26T05:58:53;4.78;;;1.77;;
11287;SDS011;5700;50.996;7.044;2023-02-26T06:01:54;2.35;;;1.30;;
11287;SDS011;5700;50.996;7.044;2023-02-26T06:04:57;2.58;;;1.45;;
11287;SDS011;5700;50.996;7.044;2023-02-26T06:07:59;5.10;;;1.58;;
11287;SDS011;5700;50.996;7.044;2023-02-26T06:11:00;3.90;;;1.95;;
11287;SDS011;5700;50.996;7.044;2023-02-26T06:14:01;2.72;;;1.20;;
11287;SDS011;5700;50.996;7.044;2023-02-26T06:17:03;3.83;;;1.35;;
11287;SDS011;5700;50.996;7.044;2023-02-26T06:20:07;1.48;;;0.90;;
11287;SDS011;5700;50.996;7.044;2023-02-26T06:23:10;3.20;;;1.00;;
11287;SDS011;5700;50.996;7.044;2023-02-26T06:26:15;3.13;;;1.35;;
11287;SDS011;5700;50.996;7.044;2023-02-26T06:29:16;2.20;;;1.33;;
11287;SDS011;5700;50.996;7.044;2023-02-26T06:32:19;2.05;;;1.05;;
11287;SDS011;5700;50.996;7.044;2023-02-26T06:35:22;1.50;;;1.05;;
11287;SDS011;5700;50.996;7.044;2023-02-26T06:38:24;4.90;;;1.27;;
11287;SDS011;5700;50.996;7.044;2023-02-26T06:41:26;1.73;;;1.10;;
11287;SDS011;5700;50.996;7.044;2023-02-26T06:44:27;4.35;;;1.98;;
11287;SDS011;5700;50.996;7.044;2023-02-26T06:47:28;3.25;;;1.40;;
11287;SDS011;5700;50.996;7.044;2023-02-26T06:50:31;5.88;;;1.88;;
11287;SDS011;5700;50.996;7.044;2023-02-26T06:53:33;6.22;;;1.60;;
11287;SDS011;5700;50.996;7.044;2023-02-26T06:56:34;7.25;;;2.30;;
11287;SDS011;5700;50.996;7.044;2023-02-26T06:59:35;9.15;;;2.65;;
11287;SDS011;5700;50.996;7.044;2023-02-26T07:02:37;4.72;;;1.88;;
11287;SDS011;5700;50.996;7.044;2023-02-26T07:05:40;6.00;;;1.90;;
11287;SDS011;5700;50.996;7.044;2023-02-26T07:08:41;3.72;;;1.90;;
11287;SDS011;5700;50.996;7.044;2023-02-26T07:11:43;5.97;;;2.10;;
11287;SDS011;5700;50.996;7.044;2023-02-26T07:14:44;6.05;;;2.35;;
11287;SDS011;5700;50.996;7.044;2023-02-26T07:17:46;5.60;;;1.95;;
11287;SDS011;5700;50.996;7.044;2023-02-26T07:20:48;5.28;;;2.08;;
11287;SDS011;5700;50.996;7.044;2023-02-26T07:23:50;5.68;;;2.58;;
11287;SDS011;5700;50.996;7.044;2023-02-26T07:26:51;3.97;;;2.45;;
11287;SDS011;5700;50.996;7.044;2023-02-26T07:29:53;5.20;;;1.92;;
11287;SDS011;5700;50.996;7.044;2023-02-26T07:32:54;3.50;;;2.22;;
11287;SDS011;5700;50.996;7.044;2023-02-26T07:35:57;4.70;;;2.63;;
11287;SDS011;5700;50.996;7.044;2023-02-26T07:38:58;4.53;;;2.33;;
11287;SDS011;5700;50.996;7.044;2023-02-26T07:42:00;3.75;;;2.45;;
11287;SDS011;5700;50.996;7.044;2023-02-26T07:45:01;5.75;;;2.50;;
11287;SDS011;5700;50.996;7.044;2023-02-26T07:48:03;4.32;;;2.40;;
11287;SDS011;5700;50.996;7.044;2023-02-26T07:51:06;7.60;;;2.70;;
11287;SDS011;5700;50.996;7.044;2023-02-26T07:54:07;6.40;;;2.15;;
11287;SDS011;5700;50.996;7.044;2023-02-26T07:57:09;9.18;;;2.58;;
11287;SDS011;5700;50.996;7.044;2023-02-26T08:00:10;3.97;;;2.40;;
11287;SDS011;5700;50.996;7.044;2023-02-26T08:03:12;7.40;;;2.90;;
11287;SDS011;5700;50.996;7.044;2023-02-26T08:06:15;4.90;;;2.83;;
11287;SDS011;5700;50.996;7.044;2023-02-26T08:09:17;4.78;;;2.40;;
11287;SDS011;5700;50.996;7.044;2023-02-26T08:12:18;6.68;;;2.40;;
11287;SDS011;5700;50.996;7.044;2023-02-26T08:15:20;7.03;;;2.42;;
11287;SDS011;5700;50.996;7.044;2023-02-26T08:18:21;6.50;;;2.35;;
11287;SDS011;5700;50.996;7.044;2023-02-26T08:21:24;3.70;;;1.77;;
11287;SDS011;5700;50.996;7.044;2023-02-26T08:24:26;7.13;;;2.55;;
11287;SDS011;5700;50.996;7.044;2023-02-26T08:27:27;3.78;;;1.80;;
11287;SDS011;5700;50.996;7.044;2023-02-26T08:30:28;4.75;;;2.20;;
11287;SDS011;5700;50.996;7.044;2023-02-26T08:33:30;4.22;;;2.05;;
11287;SDS011;5700;50.996;7.044;2023-02-26T08:36:33;4.78;;;1.83;;
11287;SDS011;5700;50.996;7.044;2023-02-26T08:39:34;4.85;;;2.05;;
11287;SDS011;5700;50.996;7.044;2023-02-26T08:42:37;6.68;;;2.05;;
11287;SDS011;5700;50.996;7.044;2023-02-26T08:45:39;4.00;;;1.70;;
11287;SDS011;5700;50.996;7.044;2023-02-26T08:48:40;8.93;;;2.08;;
11287;SDS011;5700;50.996;7.044;2023-02-26T08:51:43;3.55;;;1.70;;
11287;SDS011;5700;50.996;7.044;2023-02-26T08:54:44;2.63;;;1.50;;
11287;SDS011;5700;50.996;7.044;2023-02-26T08:57:46;7.45;;;1.63;;
11287;SDS011;5700;50.996;7.044;2023-02-26T09:00:47;6.50;;;1.65;;
11287;SDS011;5700;50.996;7.044;2023-02-26T09:03:48;6.45;;;1.60;;
11287;SDS011;5700;50.996;7.044;2023-02-26T09:06:51;3.58;;;1.50;;
11287;SDS011;5700;50.996;7.044;2023-02-26T09:09:53;3.85;;;1.52;;
11287;SDS011;5700;50.996;7.044;2023-02-26T09:12:55;4.93;;;1.60;;
11287;SDS011;5700;50.996;7.044;2023-02-26T09:15:56;1.58;;;1.00;;
11287;SDS011;5700;50.996;7.044;2023-02-26T09:18:58;2.33;;;1.25;;
11287;SDS011;5700;50.996;7.044;2023-02-26T09:22:01;3.38;;;1.13;;
11287;SDS011;5700;50.996;7.044;2023-02-26T09:25:02;1.88;;;1.20;;
11287;SDS011;5700;50.996;7.044;2023-02-26T09:28:04;2.90;;;1.40;;
11287;SDS011;5700;50.996;7.044;2023-02-26T09:31:05;2.13;;;1.20;;
11287;SDS011;5700;50.996;7.044;2023-02-26T09:34:07;3.20;;;0.95;;
11287;SDS011;5700;50.996;7.044;2023-02-26T09:37:10;2.25;;;0.90;;
11287;SDS011;5700;50.996;7.044;2023-02-26T09:40:13;2.47;;;1.25;;
11287;SDS011;5700;50.996;7.044;2023-02-26T09:43:47;2.53;;;1.02;;
11287;SDS011;5700;50.996;7.044;2023-02-26T09:46:55;1.25;;;0.90;;
11287;SDS011;5700;50.996;7.044;2023-02-26T09:50:02;1.90;;;1.13;;
11287;SDS011;5700;50.996;7.044;2023-02-26T09:53:10;3.40;;;1.15;;
11287;SDS011;5700;50.996;7.044;2023-02-26T09:56:15;2.05;;;1.00;;
11287;SDS011;5700;50.996;7.044;2023-02-26T09:59:17;2.05;;;1.00;;
11287;SDS011;5700;50.996;7.044;2023-02-26T10:02:20;2.75;;;1.13;;
11287;SDS011;5700;50.996;7.044;2023-02-26T10:05:26;2.55;;;1.05;;
11287;SDS011;5700;50.996;7.044;2023-02-26T10:08:35;3.55;;;1.27;;
11287;SDS011;5700;50.996;7.044;2023-02-26T10:11:42;4.22;;;0.98;;
11287;SDS011;5700;50.996;7.044;2023-02-26T10:14:48;1.20;;;0.77;;
11287;SDS011;5700;50.996;7.044;2023-02-26T10:17:57;0.90;;;0.73;;
11287;SDS011;5700;50.996;7.044;2023-02-26T10:21:05;0.80;;;0.60;;
11287;SDS011;5700;50.996;7.044;2023-02-26T10:24:12;1.65;;;0.55;;
11287;SDS011;5700;50.996;7.044;2023-02-26T10:27:17;1.45;;;0.70;;
11287;SDS011;5700;50.996;7.044;2023-02-26T10:30:23;2.05;;;0.80;;
11287;SDS011;5700;50.996;7.044;2023-02-26T10:33:32;1.80;;;0.90;;
11287;SDS011;5700;50.996;7.044;2023-02-26T10:36:39;1.83;;;0.77;;
11287;SDS011;5700;50.996;7.044;2023-02-26T10:39:48;1.55;;;0.70;;
11287;SDS011;5700;50.996;7.044;2023-02-26T10:42:53;3.13;;;0.80;;
11287;SDS011;5700;50.996;7.044;2023-02-26T10:46:01;3.28;;;0.80;;
11287;SDS011;5700;50.996;7.044;2023-02-26T10:49:18;1.75;;;0.65;;
11287;SDS011;5700;50.996;7.044;2023-02-26T10:52:35;1.40;;;0.68;;
11287;SDS011;5700;50.996;7.044;2023-02-26T10:55:39;1.77;;;0.50;;
11287;SDS011;5700;50.996;7.044;2023-02-26T10:58:42;2.78;;;0.52;;
11287;SDS011;5700;50.996;7.044;2023-02-26T11:01:43;2.80;;;0.80;;
11287;SDS011;5700;50.996;7.044;2023-02-26T11:04:45;1.33;;;0.60;;
11287;SDS011;5700;50.996;7.044;2023-02-26T11:07:47;1.52;;;0.63;;
11287;SDS011;5700;50.996;7.044;2023-02-26T11:10:53;1.45;;;0.70;;
11287;SDS011;5700;50.996;7.044;2023-02-26T11:13:54;0.50;;;0.50;;
11287;SDS011;5700;50.996;7.044;2023-02-26T11:16:57;2.42;;;0.60;;
11287;SDS011;5700;50.996;7.044;2023-02-26T11:20:01;4.13;;;0.95;;
11287;SDS011;5700;50.996;7.044;2023-02-26T11:23:06;1.55;;;0.70;;
11287;SDS011;5700;50.996;7.044;2023-02-26T11:26:16;1.83;;;0.85;;
11287;SDS011;5700;50.996;7.044;2023-02-26T11:29:19;2.35;;;0.77;;
11287;SDS011;5700;50.996;7.044;2023-02-26T11:32:31;2.05;;;0.70;;
11287;SDS011;5700;50.996;7.044;2023-02-26T11:35:33;0.90;;;0.70;;
11287;SDS011;5700;50.996;7.044;2023-02-26T11:38:35;2.05;;;0.50;;
11287;SDS011;5700;50.996;7.044;2023-02-26T11:41:38;1.45;;;0.52;;
11287;SDS011;5700;50.996;7.044;2023-02-26T11:44:41;2.88;;;0.70;;
11287;SDS011;5700;50.996;7.044;2023-02-26T11:47:44;1.80;;;0.60;;
11287;SDS011;5700;50.996;7.044;2023-02-26T11:50:47;1.25;;;0.57;;
11287;SDS011;5700;50.996;7.044;2023-02-26T11:53:51;1.60;;;0.70;;
11287;SDS011;5700;50.996;7.044;2023-02-26T11:57:01;1.50;;;0.70;;
11287;SDS011;5700;50.996;7.044;2023-02-26T12:00:15;1.90;;;0.90;;
11287;SDS011;5700;50.996;7.044;2023-02-26T12:03:20;1.50;;;0.80;;
11287;SDS011;5700;50.996;7.044;2023-02-26T12:06:24;3.13;;;0.80;;
11287;SDS011;5700;50.996;7.044;2023-02-26T12:09:25;3.13;;;0.80;;
11287;SDS011;5700;50.996;7.044;2023-02-26T12:12:39;0.73;;;0.60;;
11287;SDS011;5700;50.996;7.044;2023-02-26T12:15:50;1.65;;;0.85;;
11287;SDS011;5700;50.996;7.044;2023-02-26T12:18:58;1.42;;;0.85;;
11287;SDS011;5700;50.996;7.044;2023-02-26T12:22:07;0.50;;;0.50;;
11287;SDS011;5700;50.996;7.044;2023-02-26T12:25:21;1.95;;;0.45;;
11287;SDS011;5700;50.996;7.044;2023-02-26T12:28:37;0.55;;;0.50;;
11287;SDS011;5700;50.996;7.044;2023-02-26T12:35:10;0.80;;;0.60;;
11287;SDS011;5700;50.996;7.044;2023-02-26T12:38:24;1.40;;;0.73;;
11287;SDS011;5700;50.996;7.044;2023-02-26T12:41:33;2.60;;;0.80;;
11287;SDS011;5700;50.996;7.044;2023-02-26T12:44:47;1.23;;;0.63;;
11287;SDS011;5700;50.996;7.044;2023-02-26T12:48:02;1.70;;;1.13;;
11287;SDS011;5700;50.996;7.044;2023-02-26T12:51:28;1.13;;;0.70;;
11287;SDS011;5700;50.996;7.044;2023-02-26T12:54:40;3.83;;;0.98;;
11287;SDS011;5700;50.996;7.044;2023-02-26T12:57:49;2.72;;;0.85;;
11287;SDS011;5700;50.996;7.044;2023-02-26T13:01:09;2.47;;;0.88;;
11287;SDS011;5700;50.996;7.044;2023-02-26T13:07:49;1.10;;;0.80;;
11287;SDS011;5700;50.996;7.044;2023-02-26T13:10:58;1.50;;;0.70;;
11287;SDS011;5700;50.996;7.044;2023-02-26T13:14:11;4.22;;;1.20;;
11287;SDS011;5700;50.996;7.044;2023-02-26T13:17:26;1.40;;;0.70;;
11287;SDS011;5700;50.996;7.044;2023-02-26T13:20:30;0.98;;;0.73;;
11287;SDS011;5700;50.996;7.044;2023-02-26T13:23:34;1.33;;;0.70;;
11287;SDS011;5700;50.996;7.044;2023-02-26T13:26:37;0.95;;;0.60;;
11287;SDS011;5700;50.996;7.044;2023-02-26T13:29:42;1.90;;;0.70;;
11287;SDS011;5700;50.996;7.044;2023-02-26T13:32:48;0.80;;;0.60;;
11287;SDS011;5700;50.996;7.044;2023-02-26T13:35:51;0.90;;;0.50;;
11287;SDS011;5700;50.996;7.044;2023-02-26T13:39:05;0.60;;;0.60;;
11287;SDS011;5700;50.996;7.044;2023-02-26T13:42:18;2.30;;;0.80;;
11287;SDS011;5700;50.996;7.044;2023-02-26T13:45:28;0.88;;;0.70;;
11287;SDS011;5700;50.996;7.044;2023-02-26T13:48:39;1.35;;;0.80;;
11287;SDS011;5700;50.996;7.044;2023-02-26T13:51:43;1.27;;;1.13;;
11287;SDS011;5700;50.996;7.044;2023-02-26T13:54:45;1.60;;;0.65;;
11287;SDS011;5700;50.996;7.044;2023-02-26T13:57:48;1.15;;;0.70;;
11287;SDS011;5700;50.996;7.044;2023-02-26T14:00:56;0.88;;;0.60;;
11287;SDS011;5700;50.996;7.044;2023-02-26T14:10:53;1.73;;;0.77;;
11287;SDS011;5700;50.996;7.044;2023-02-26T14:20:38;1.95;;;0.50;;
11287;SDS011;5700;50.996;7.044;2023-02-26T14:23:39;0.50;;;0.50;;
11287;SDS011;5700;50.996;7.044;2023-02-26T14:26:43;1.00;;;0.70;;
11287;SDS011;5700;50.996;7.044;2023-02-26T14:29:55;2.97;;;0.70;;
11287;SDS011;5700;50.996;7.044;2023-02-26T14:33:06;3.13;;;0.82;;
11287;SDS011;5700;50.996;7.044;2023-02-26T14:36:13;1.73;;;0.70;;
11287;SDS011;5700;50.996;7.044;2023-02-26T14:39:25;1.13;;;0.57;;
11287;SDS011;5700;50.996;7.044;2023-02-26T14:42:30;1.27;;;0.60;;
11287;SDS011;5700;50.996;7.044;2023-02-26T14:45:35;2.15;;;0.73;;
11287;SDS011;5700;50.996;7.044;2023-02-26T14:48:37;3.95;;;0.60;;
11287;SDS011;5700;50.996;7.044;2023-02-26T14:51:43;0.52;;;0.40;;
11287;SDS011;5700;50.996;7.044;2023-02-26T14:54:52;3.17;;;0.63;;
11287;SDS011;5700;50.996;7.044;2023-02-26T14:58:04;1.23;;;0.50;;
11287;SDS011;5700;50.996;7.044;2023-02-26T15:01:19;3.15;;;0.60;;
11287;SDS011;5700;50.996;7.044;2023-02-26T15:04:36;0.68;;;0.63;;
11287;SDS011;5700;50.996;7.044;2023-02-26T15:07:51;1.05;;;0.60;;
11287;SDS011;5700;50.996;7.044;2023-02-26T15:11:03;1.05;;;0.77;;
11287;SDS011;5700;50.996;7.044;2023-02-26T15:14:18;1.70;;;0.80;;
11287;SDS011;5700;50.996;7.044;2023-02-26T15:17:34;3.13;;;0.73;;
11287;SDS011;5700;50.996;7.044;2023-02-26T15:20:43;0.60;;;0.60;;
11287;SDS011;5700;50.996;7.044;2023-02-26T15:23:51;1.20;;;0.80;;
11287;SDS011;5700;50.996;7.044;2023-02-26T15:26:56;1.58;;;0.65;;
11287;SDS011;5700;50.996;7.044;2023-02-26T15:30:00;1.42;;;0.73;;
11287;SDS011;5700;50.996;7.044;2023-02-26T15:33:03;2.25;;;0.60;;
11287;SDS011;5700;50.996;7.044;2023-02-26T15:36:06;1.40;;;0.65;;
11287;SDS011;5700;50.996;7.044;2023-02-26T15:39:12;0.80;;;0.50;;
11287;SDS011;5700;50.996;7.044;2023-02-26T15:42:15;1.08;;;0.70;;
11287;SDS011;5700;50.996;7.044;2023-02-26T15:45:19;1.00;;;0.70;;
11287;SDS011;5700;50.996;7.044;2023-02-26T15:48:25;2.60;;;0.93;;
11287;SDS011;5700;50.996;7.044;2023-02-26T15:51:29;2.45;;;0.63;;
11287;SDS011;5700;50.996;7.044;2023-02-26T15:54:33;2.25;;;0.70;;
11287;SDS011;5700;50.996;7.044;2023-02-26T15:57:37;0.55;;;0.55;;
11287;SDS011;5700;50.996;7.044;2023-02-26T16:00:38;2.17;;;0.90;;
11287;SDS011;5700;50.996;7.044;2023-02-26T16:03:42;1.35;;;0.70;;
11287;SDS011;5700;50.996;7.044;2023-02-26T16:06:44;1.67;;;0.80;;
11287;SDS011;5700;50.996;7.044;2023-02-26T16:09:49;4.68;;;0.70;;
11287;SDS011;5700;50.996;7.044;2023-02-26T16:12:53;2.83;;;1.20;;
11287;SDS011;5700;50.996;7.044;2023-02-26T16:15:57;2.50;;;0.98;;
11287;SDS011;5700;50.996;7.044;2023-02-26T16:19:01;1.55;;;0.90;;
11287;SDS011;5700;50.996;7.044;2023-02-26T16:22:03;0.70;;;0.70;;
11287;SDS011;5700;50.996;7.044;2023-02-26T16:25:12;1.48;;;0.82;;
11287;SDS011;5700;50.996;7.044;2023-02-26T16:28:18;1.02;;;0.60;;
11287;SDS011;5700;50.996;7.044;2023-02-26T16:31:21;1.95;;;0.75;;
11287;SDS011;5700;50.996;7.044;2023-02-26T16:34:27;1.10;;;0.63;;
11287;SDS011;5700;50.996;7.044;2023-02-26T16:37:34;1.67;;;0.70;;
11287;SDS011;5700;50.996;7.044;2023-02-26T16:40:39;2.65;;;0.80;;
11287;SDS011;5700;50.996;7.044;2023-02-26T16:43:48;2.45;;;0.60;;
11287;SDS011;5700;50.996;7.044;2023-02-26T16:46:51;2.15;;;0.85;;
11287;SDS011;5700;50.996;7.044;2023-02-26T16:49:53;1.55;;;0.80;;
11287;SDS011;5700;50.996;7.044;2023-02-26T16:52:57;3.80;;;1.35;;
11287;SDS011;5700;50.996;7.044;2023-02-26T16:56:01;1.20;;;0.73;;
11287;SDS011;5700;50.996;7.044;2023-02-26T16:59:04;2.28;;;0.88;;
11287;SDS011;5700;50.996;7.044;2023-02-26T17:02:09;3.20;;;0.75;;
11287;SDS011;5700;50.996;7.044;2023-02-26T17:05:16;0.70;;;0.70;;
11287;SDS011;5700;50.996;7.044;2023-02-26T17:08:25;3.58;;;1.50;;
11287;SDS011;5700;50.996;7.044;2023-02-26T17:11:29;9.63;;;2.55;;
11287;SDS011;5700;50.996;7.044;2023-02-26T17:14:36;2.38;;;1.38;;
11287;SDS011;5700;50.996;7.044;2023-02-26T17:17:39;2.80;;;1.17;;
11287;SDS011;5700;50.996;7.044;2023-02-26T17:20:41;3.22;;;1.08;;
11287;SDS011;5700;50.996;7.044;2023-02-26T17:23:43;2.22;;;0.90;;
11287;SDS011;5700;50.996;7.044;2023-02-26T17:26:46;1.80;;;0.75;;
11287;SDS011;5700;50.996;7.044;2023-02-26T17:29:48;2.00;;;0.88;;
11287;SDS011;5700;50.996;7.044;2023-02-26T17:32:50;2.47;;;0.90;;
11287;SDS011;5700;50.996;7.044;2023-02-26T17:35:52;1.27;;;0.90;;
11287;SDS011;5700;50.996;7.044;2023-02-26T17:38:57;1.42;;;0.65;;
11287;SDS011;5700;50.996;7.044;2023-02-26T17:42:00;1.92;;;1.05;;
11287;SDS011;5700;50.996;7.044;2023-02-26T17:45:01;1.90;;;1.00;;
11287;SDS011;5700;50.996;7.044;2023-02-26T17:48:03;1.65;;;0.80;;
11287;SDS011;5700;50.996;7.044;2023-02-26T17:51:05;1.25;;;0.80;;
11287;SDS011;5700;50.996;7.044;2023-02-26T17:54:07;4.43;;;1.38;;
11287;SDS011;5700;50.996;7.044;2023-02-26T17:57:10;1.48;;;0.88;;
11287;SDS011;5700;50.996;7.044;2023-02-26T18:00:16;6.38;;;1.08;;
11287;SDS011;5700;50.996;7.044;2023-02-26T18:03:18;2.83;;;1.23;;
11287;SDS011;5700;50.996;7.044;2023-02-26T18:06:20;0.95;;;0.90;;
11287;SDS011;5700;50.996;7.044;2023-02-26T18:09:22;0.70;;;0.70;;
11287;SDS011;5700;50.996;7.044;2023-02-26T18:12:24;1.33;;;1.00;;
11287;SDS011;5700;50.996;7.044;2023-02-26T18:15:26;1.38;;;1.00;;
11287;SDS011;5700;50.996;7.044;2023-02-26T18:18:28;4.70;;;1.30;;
11287;SDS011;5700;50.996;7.044;2023-02-26T18:21:30;0.95;;;0.80;;
11287;SDS011;5700;50.996;7.044;2023-02-26T18:24:31;5.65;;;0.93;;
11287;SDS011;5700;50.996;7.044;2023-02-26T18:27:34;1.95;;;0.80;;
11287;SDS011;5700;50.996;7.044;2023-02-26T18:30:35;1.38;;;0.85;;
11287;SDS011;5700;50.996;7.044;2023-02-26T18:33:39;0.60;;;0.60;;
11287;SDS011;5700;50.996;7.044;2023-02-26T18:36:43;1.50;;;0.70;;
11287;SDS011;5700;50.996;7.044;2023-02-26T18:39:44;0.75;;;0.65;;
11287;SDS011;5700;50.996;7.044;2023-02-26T18:42:47;0.88;;;0.73;;
11287;SDS011;5700;50.996;7.044;2023-02-26T18:45:50;0.85;;;0.70;;
11287;SDS011;5700;50.996;7.044;2023-02-26T18:48:52;1.98;;;1.02;;
11287;SDS011;5700;50.996;7.044;2023-02-26T18:51:53;2.42;;;0.90;;
11287;SDS011;5700;50.996;7.044;2023-02-26T18:54:55;2.05;;;1.00;;
11287;SDS011;5700;50.996;7.044;2023-02-26T18:57:57;3.40;;;1.00;;
11287;SDS011;5700;50.996;7.044;2023-02-26T19:01:00;2.20;;;1.08;;
11287;SDS011;5700;50.996;7.044;2023-02-26T19:04:02;6.18;;;1.33;;
11287;SDS011;5700;50.996;7.044;2023-02-26T19:07:03;5.07;;;1.92;;